Fort McMurray Airport
CYMM : now visible

Airfield :











YOU CAN JOIN US ON...

 
LOGIN :

Register | Disclaimer

   EN    FR    IT 

 









Legend :    VFR   Marginal VFR   IFR   Intensive IFR   Very Intensive IFR
Visi :
Ceiling :
>= 8 km
>= 3000ft
5 to 8 km
1000 to 3000 ft
1500m to 5 km
500 to 1000 ft
800 to 1500m
200 to 500 ft
< 800m
< 200 ft
Symbols :   Thunderstorms  Fog  Heavy snow  Heavy precipitations  Wind > 20 kt







- Airport Elevation : 1211 ft
- IATA code : YMM


CYMM - Fort McMurray

CURRENT METAR :
  • 212100Z AUTO 24010G17KT 180V260 9SM CLR 21/08 A2958 RMK SLP026 DENSITY ALT 2500FT

EXPIRED METARs :
  • 212000Z AUTO 22012G17KT 9SM CLR 20/08 A2960 RMK SLP033 DENSITY ALT 2400FT
  • 211900Z AUTO 20013KT 9SM CLR 19/07 A2961 RMK SLP038 DENSITY ALT 2300FT

TAF TAF CYMM
Valid from the 21 at 19:00 until the 22 at 07:00 UTC


211838Z 2119/2207 22010G20KT P6SM FEW200
FM212100 22010G20KT P6SM SCT040
BECMG 2201/2203 20008KT RMK FCST BASED ON AUTO OBS. NXT FCST BY 220100Z
No reported NOTAMs for that airfield.



MET'MAP, your aeronautical weather chart ! - Copyright ORBIFLY December 2007 - Disclaimer

ORBIFLY MET'MAP TEAM :

Programming & Development : Alexandra Zaïnal
Concept & Development : Baudouin d'Aumeries
Co-Development & Prog : Marc-Olivier Méhu
Technical & hardware support : Manuel Goepfert

Contact : metmap@orbifly.com




SOURCES & CREDITS :

   NOAA       Earth
Advisory